Terminal Aerodrome Forecast
Issued by NWS

Home | Current Version | Previous Version | Text Only | Print | Product List | Glossary Off
Versions: 1 2 3 4 5 6 7 8 9 10 11 12 13 14 15 16 17 18 19 20 21 22 23 24 25 26 27 28 29 30 31 32 33 34 35 36 37 38 39 40 41 42 43 44 45 46 47 48 49 50

000
FTUS43 KLOT 181127
TAFGYY
TAF
KGYY 181127Z 1812/1912 05006KT P6SM SKC
     FM181300 08014G20KT P6SM BKN030
     FM181700 06015G25KT 4SM -SHRA VCTS OVC025CB
      TEMPO 1817/1820 2SM TSRAGS
     FM182000 01012G22KT 1SM -DZRA BR OVC004
     FM190200 34014G22KT 1SM -SN BR OVC007
     FM190800 34011KT P6SM BKN015
     FM191100 35010KT P6SM SCT100=

USA.gov is the U.S. government's official web portal to all federal, state and local government web resources and services.